LEMG/AGP METAR and TAF weather

Enter ICAO airport designator
Station Type Date Time Source
LEMG METAR 2019/07/17 18:30 UTC NOAA

LEMG 171830Z 06005KT 020V100 CAVOK 26/16 Q1012 NOSIG


Station Type Date Time Source
LEMG Decoded METAR 2019/07/17 18:30 UTC NOAA

Malaga / Aeropuerto, Spain (LEMG) 36-40N 004-29W 7M
Jul 17, 2019 - 02:30 PM EDT / 2019.07.17 1830 UTC
Wind: from the ENE (060 degrees) at 6 MPH (5 KT) (direction variable):0
Visibility: greater than 7 mile(s):0
Temperature: 78 F (26 C)
Dew Point: 60 F (16 C)
Relative Humidity: 54%
Pressure (altimeter): 29.88 in. Hg (1012 hPa)
ob: LEMG 171830Z 06005KT 020V100 CAVOK 26/16 Q1012 NOSIG
cycle: 18

Station Type Date Time Source
LEMG TAF 2019/07/17 18:27 UTC NOAA

TAF LEMG 171700Z 1718/1818 10007KT 9999 FEW030 TX28/1718Z TN20/1805Z
BECMG 1718/1721 VRB03KT PROB30
TEMPO 1722/1801 28008KT
BECMG 1807/1809 13008KT

Example: see airport list